Time;durP1;ratioP1;P1;durP2;ratioP2;P2;SDS_P1;SDS_P2;PMS_P1;PMS_P2;Temp;Humidity;BMP_temperature;BMP_pressure;BME280_temperature;BME280_humidity;BME280_pressure;Samples;Min_cycle;Max_cycle;Signal;HPM_P1;HPM_P2
2023/06/18 00:02:49;;;;;;;;;;;;;;;23.61;51.45;100722.55;2253222;77;50415;-77
2023/06/18 00:05:52;;;;;;;;;;;;;;;23.59;51.47;100716.53;2315534;76;50317;-75
2023/06/18 00:08:54;;;;;;;;;;;;;;;23.61;51.55;100719.00;2293461;77;50726;-75
2023/06/18 00:11:56;;;;;;;;;;;;;;;23.61;51.57;100711.75;2293505;76;51471;-75
2023/06/18 00:14:57;;;;;;;;;;;;;;;23.59;51.55;100717.88;2293555;77;51793;-76
2023/06/18 00:18:00;;;;;;;;;;;;;;;23.58;51.54;100713.54;2229906;78;50043;-77
2023/06/18 00:21:07;;;;;;;;;;;;;;;23.59;51.53;100711.66;2222411;80;50745;-77
2023/06/18 00:24:05;;;;;;;;;;;;;;;23.59;51.52;100717.88;2222197;80;22800;-76
2023/06/18 00:27:06;;;;;;;;;;;;;;;23.59;51.51;100707.08;2222260;80;50818;-75
2023/06/18 00:30:08;;;;;;;;;;;;;;;23.58;51.60;100716.73;2199856;80;51493;-76
2023/06/18 00:33:10;;;;;;;;;;;;;;;23.59;51.54;100712.48;2200943;79;50567;-77
2023/06/18 00:36:12;;;;;;;;;;;;;;;23.57;51.49;100713.21;2233771;79;51439;-75
2023/06/18 00:39:14;;;;;;;;;;;;;;;23.58;51.54;100710.84;2257129;79;51544;-76
2023/06/18 00:42:15;;;;;;;;;;;;;;;23.57;51.51;100708.34;2256994;78;50336;-75
2023/06/18 00:45:17;;;;;;;;;;;;;;;23.57;51.41;100714.56;2210051;79;51193;-76
2023/06/18 00:48:18;;;;;;;;;;;;;;;23.58;51.37;100709.48;2256708;77;49939;-76
2023/06/18 00:51:22;;;;;;;;;;;;;;;23.57;51.43;100704.28;2257086;77;50636;-75
2023/06/18 00:54:23;;;;;;;;;;;;;;;23.56;51.42;100702.64;2257218;77;51498;-75
2023/06/18 00:57:25;;;;;;;;;;;;;;;23.55;51.51;100705.84;2257092;79;51593;-77
2023/06/18 01:00:28;;;;;;;;;;;;;;;23.56;51.51;100704.81;2257328;78;51530;-75
2023/06/18 01:03:32;;;;;;;;;;;;;;;23.56;51.41;100704.81;2254079;76;50288;-75
2023/06/18 01:06:34;;;;;;;;;;;;;;;23.55;51.34;100712.59;2254530;78;22375;-76
2023/06/18 01:09:35;;;;;;;;;;;;;;;23.55;51.33;100719.34;2231955;78;50155;-76
2023/06/18 01:12:37;;;;;;;;;;;;;;;23.54;51.32;100715.00;2254565;79;50719;-75
2023/06/18 01:15:39;;;;;;;;;;;;;;;23.54;51.19;100707.42;2254742;79;51630;-76
2023/06/18 01:18:45;;;;;;;;;;;;;;;23.55;51.13;100713.12;2256800;77;50056;-76
2023/06/18 01:21:47;;;;;;;;;;;;;;;23.55;51.04;100710.42;2254741;77;22309;-75
2023/06/18 01:24:51;;;;;;;;;;;;;;;23.55;50.99;100709.06;2254538;78;50417;-74
2023/06/18 01:27:53;;;;;;;;;;;;;;;23.54;50.99;100713.64;2254427;78;50296;-75
2023/06/18 01:30:55;;;;;;;;;;;;;;;23.53;50.93;100713.84;2248994;78;50688;-76
2023/06/18 01:33:57;;;;;;;;;;;;;;;23.54;50.91;100720.40;2247275;78;50079;-76
2023/06/18 01:37:01;;;;;;;;;;;;;;;23.54;50.91;100715.52;2231508;77;51471;-76
2023/06/18 01:40:10;;;;;;;;;;;;;;;23.51;50.96;100721.36;2254695;77;50274;-76
2023/06/18 01:43:13;;;;;;;;;;;;;;;23.50;50.94;100712.41;2255228;78;50704;-76
2023/06/18 01:46:16;;;;;;;;;;;;;;;23.51;50.92;100711.91;2255572;78;51469;-75
2023/06/18 01:49:17;;;;;;;;;;;;;;;23.51;50.88;100714.08;2256050;77;50867;-75
2023/06/18 01:52:19;;;;;;;;;;;;;;;23.50;50.74;100711.05;2254297;79;51537;-74
2023/06/18 01:55:20;;;;;;;;;;;;;;;23.51;50.66;100725.41;2254189;77;51444;-75
2023/06/18 01:58:22;;;;;;;;;;;;;;;23.49;50.64;100714.81;2254036;77;51525;-74
2023/06/18 02:01:26;;;;;;;;;;;;;;;23.47;50.53;100720.94;2246395;77;50709;-74
2023/06/18 02:04:27;;;;;;;;;;;;;;;23.47;50.42;100726.34;2260289;77;21865;-75
2023/06/18 02:07:28;;;;;;;;;;;;;;;23.45;50.32;100728.42;2314973;76;50427;-75
2023/06/18 02:10:30;;;;;;;;;;;;;;;23.44;50.26;100726.25;2268404;77;51328;-76
2023/06/18 02:13:31;;;;;;;;;;;;;;;23.44;50.23;100732.17;2292552;76;50684;-76
2023/06/18 02:16:33;;;;;;;;;;;;;;;23.43;50.19;100741.33;2315308;76;50722;-76
2023/06/18 02:19:35;;;;;;;;;;;;;;;23.41;50.24;100746.93;2293206;77;53306;-75
2023/06/18 02:22:37;;;;;;;;;;;;;;;23.40;50.21;100746.64;2268417;77;51651;-75
2023/06/18 02:25:39;;;;;;;;;;;;;;;23.40;50.21;100745.78;2293573;77;52447;-75
2023/06/18 02:28:40;;;;;;;;;;;;;;;23.40;50.19;100748.48;2293060;76;50407;-75
2023/06/18 02:31:42;;;;;;;;;;;;;;;23.39;50.23;100740.09;2266046;77;51475;-76
2023/06/18 02:34:43;;;;;;;;;;;;;;;23.40;50.11;100744.43;2239586;75;50918;-76
2023/06/18 02:37:46;;;;;;;;;;;;;;;23.38;50.14;100737.09;2292693;76;51432;-76
2023/06/18 02:40:47;;;;;;;;;;;;;;;23.38;50.03;100743.31;2315220;75;51501;-77
2023/06/18 02:43:49;;;;;;;;;;;;;;;23.36;50.01;100739.17;2293188;77;51381;-76
2023/06/18 02:46:50;;;;;;;;;;;;;;;23.37;49.91;100746.22;2267691;76;52703;-77
2023/06/18 02:49:52;;;;;;;;;;;;;;;23.37;49.80;100744.86;2315569;75;51414;-77
2023/06/18 02:52:55;;;;;;;;;;;;;;;23.36;49.77;100744.04;2315424;75;51385;-76
2023/06/18 02:55:57;;;;;;;;;;;;;;;23.35;49.79;100742.39;2293797;76;50379;-77
2023/06/18 02:58:59;;;;;;;;;;;;;;;23.33;49.71;100740.95;2268320;77;51573;-77
2023/06/18 03:02:05;;;;;;;;;;;;;;;23.32;49.73;100738.74;2282689;75;50303;-77
2023/06/18 03:05:04;;;;;;;;;;;;;;;23.32;49.72;100735.22;2255524;78;22301;-75
2023/06/18 03:08:06;;;;;;;;;;;;;;;23.33;49.70;100746.34;2256890;78;50257;-75
2023/06/18 03:11:08;;;;;;;;;;;;;;;23.31;49.78;100739.80;2233882;79;52418;-76
2023/06/18 03:14:09;;;;;;;;;;;;;;;23.31;49.70;100743.02;2257102;79;50248;-75
2023/06/18 03:17:11;;;;;;;;;;;;;;;23.31;49.67;100745.73;2256836;79;51439;-75
2023/06/18 03:20:13;;;;;;;;;;;;;;;23.29;49.68;100735.13;2257109;78;51435;-77
2023/06/18 03:23:14;;;;;;;;;;;;;;;23.29;49.71;100739.70;2233805;79;51481;-76
2023/06/18 03:26:16;;;;;;;;;;;;;;;23.30;49.65;100745.39;2233772;79;51542;-75
2023/06/18 03:29:18;;;;;;;;;;;;;;;23.30;49.76;100747.60;2257155;79;50314;-76
2023/06/18 03:32:21;;;;;;;;;;;;;;;23.29;49.71;100743.75;2233891;78;50644;-76
2023/06/18 03:35:23;;;;;;;;;;;;;;;23.27;49.74;100743.95;2232901;79;52627;-76
2023/06/18 03:38:24;;;;;;;;;;;;;;;23.27;49.75;100742.60;2233764;79;50117;-76
2023/06/18 03:41:27;;;;;;;;;;;;;;;23.28;49.64;100744.28;2257017;79;52338;-77
2023/06/18 03:44:28;;;;;;;;;;;;;;;23.28;49.68;100750.20;2234195;79;50771;-77
2023/06/18 03:47:30;;;;;;;;;;;;;;;23.28;49.67;100746.16;2233490;77;52504;-75
2023/06/18 03:50:32;;;;;;;;;;;;;;;23.26;49.62;100745.83;2257469;79;51526;-74
2023/06/18 03:53:37;;;;;;;;;;;;;;;23.27;49.61;100742.60;2234962;78;51641;-74
2023/06/18 03:56:38;;;;;;;;;;;;;;;23.26;49.64;100741.78;2257045;78;51549;-75
2023/06/18 03:59:40;;;;;;;;;;;;;;;23.26;49.67;100745.00;2234481;78;51412;-75
2023/06/18 04:02:42;;;;;;;;;;;;;;;23.24;49.66;100741.16;2233499;78;50756;-75
2023/06/18 04:05:43;;;;;;;;;;;;;;;23.25;49.71;100744.18;2233405;79;51483;-75
2023/06/18 04:08:45;;;;;;;;;;;;;;;23.24;49.66;100744.38;2256944;79;51547;-74
2023/06/18 04:11:46;;;;;;;;;;;;;;;23.25;49.69;100748.23;2257087;78;51494;-75
2023/06/18 04:14:48;;;;;;;;;;;;;;;23.24;49.69;100746.55;2234396;78;50169;-76
2023/06/18 04:17:50;;;;;;;;;;;;;;;23.25;49.72;100743.36;2233763;78;50069;-76
2023/06/18 04:20:51;;;;;;;;;;;;;;;23.22;49.84;100747.31;2257155;78;50368;-75
2023/06/18 04:23:53;;;;;;;;;;;;;;;23.24;49.70;100749.25;2210363;79;51619;-76
2023/06/18 04:26:55;;;;;;;;;;;;;;;23.26;49.76;100747.70;2233890;79;51540;-76
2023/06/18 04:29:56;;;;;;;;;;;;;;;23.27;49.72;100749.35;2257306;79;51476;-76
2023/06/18 04:32:58;;;;;;;;;;;;;;;23.25;49.85;100750.93;2290237;76;50292;-76
2023/06/18 04:36:00;;;;;;;;;;;;;;;23.25;49.78;100752.28;2261493;76;50172;-76
2023/06/18 04:39:02;;;;;;;;;;;;;;;23.29;49.70;100751.84;2293222;77;50399;-75
2023/06/18 04:42:04;;;;;;;;;;;;;;;23.30;49.84;100755.70;2293279;75;50187;-76
2023/06/18 04:45:05;;;;;;;;;;;;;;;23.32;50.06;100760.88;2293416;77;51438;-75
2023/06/18 04:48:08;;;;;;;;;;;;;;;23.35;49.93;100758.59;2293168;76;52293;-74
2023/06/18 04:51:09;;;;;;;;;;;;;;;23.35;49.91;100764.00;2315480;76;50489;-74
2023/06/18 04:54:11;;;;;;;;;;;;;;;23.40;50.36;100757.94;2315600;77;50196;-74
2023/06/18 04:57:13;;;;;;;;;;;;;;;23.43;50.51;100758.36;2315242;76;50659;-74
2023/06/18 05:00:15;;;;;;;;;;;;;;;23.47;50.50;100762.80;2315473;76;51580;-74
2023/06/18 05:03:16;;;;;;;;;;;;;;;23.50;50.51;100763.72;2258780;77;50764;-73
2023/06/18 05:06:18;;;;;;;;;;;;;;;23.54;50.39;100764.14;2313289;77;51595;-74
2023/06/18 05:09:19;;;;;;;;;;;;;;;23.60;50.25;100762.75;2293860;76;51482;-73
2023/06/18 05:12:21;;;;;;;;;;;;;;;23.64;50.14;100765.34;2268444;77;52497;-73
2023/06/18 05:15:23;;;;;;;;;;;;;;;23.67;50.07;100766.26;2315761;75;51422;-74
2023/06/18 05:18:24;;;;;;;;;;;;;;;23.72;49.90;100764.30;2293342;77;50102;-74
2023/06/18 05:21:26;;;;;;;;;;;;;;;23.77;49.79;100762.31;2316475;75;51524;-72
2023/06/18 05:24:27;;;;;;;;;;;;;;;23.80;49.69;100758.65;2293029;77;49891;-74
2023/06/18 05:27:29;;;;;;;;;;;;;;;23.84;49.55;100760.38;2316290;75;50391;-74
2023/06/18 05:30:31;;;;;;;;;;;;;;;23.88;49.43;100759.75;2315516;76;50230;-74
2023/06/18 05:33:32;;;;;;;;;;;;;;;23.92;49.29;100764.22;2246265;79;50618;-74
2023/06/18 05:36:34;;;;;;;;;;;;;;;23.95;49.14;100769.19;2209984;79;52681;-74
2023/06/18 05:39:36;;;;;;;;;;;;;;;24.02;48.95;100772.69;2234058;79;50695;-74
2023/06/18 05:42:40;;;;;;;;;;;;;;;24.05;48.79;100770.08;2234049;79;50468;-74
2023/06/18 05:45:42;;;;;;;;;;;;;;;24.10;48.59;100776.48;2257229;78;50698;-74
2023/06/18 05:48:44;;;;;;;;;;;;;;;24.13;48.42;100768.47;2233204;78;52462;-74
2023/06/18 05:51:45;;;;;;;;;;;;;;;24.17;48.30;100772.90;2233985;79;51549;-73
2023/06/18 05:54:47;;;;;;;;;;;;;;;24.19;48.19;100766.23;2257288;78;50171;-74
2023/06/18 05:57:50;;;;;;;;;;;;;;;24.22;48.08;100771.73;2257095;78;50376;-74
2023/06/18 06:00:52;;;;;;;;;;;;;;;24.27;47.96;100773.25;2210271;77;52577;-74
2023/06/18 06:03:53;;;;;;;;;;;;;;;24.31;47.84;100781.25;2233263;79;50810;-75
2023/06/18 06:06:55;;;;;;;;;;;;;;;24.32;47.77;100777.48;2233380;79;51520;-74
2023/06/18 06:09:56;;;;;;;;;;;;;;;24.36;47.65;100778.72;2257123;78;51419;-75
2023/06/18 06:12:58;;;;;;;;;;;;;;;24.37;47.58;100783.59;2233973;79;50930;-75
2023/06/18 06:16:00;;;;;;;;;;;;;;;24.38;47.48;100786.09;2234345;79;51403;-74
2023/06/18 06:19:01;;;;;;;;;;;;;;;24.42;47.34;100786.48;2233921;79;50595;-75
2023/06/18 06:22:03;;;;;;;;;;;;;;;24.65;46.77;100783.22;2210217;79;52562;-74
2023/06/18 06:25:05;;;;;;;;;;;;;;;24.72;46.54;100785.35;2216302;77;51678;-74
2023/06/18 06:28:06;;;;;;;;;;;;;;;24.74;46.29;100794.91;2245367;76;50049;-74
2023/06/18 06:31:08;;;;;;;;;;;;;;;24.76;46.11;100794.67;2269823;77;50633;-75
2023/06/18 06:34:09;;;;;;;;;;;;;;;24.71;46.25;100812.09;2246642;75;51408;-74
2023/06/18 06:37:11;;;;;;;;;;;;;;;24.74;46.26;100800.85;2293461;77;50643;-74
2023/06/18 06:40:13;;;;;;;;;;;;;;;24.72;46.11;100802.94;2271981;76;50677;-75
2023/06/18 06:43:14;;;;;;;;;;;;;;;24.73;45.90;100808.64;2258914;78;51483;-76
2023/06/18 06:46:16;;;;;;;;;;;;;;;24.81;45.94;100811.08;2258661;77;51473;-74
2023/06/18 06:49:17;;;;;;;;;;;;;;;24.77;45.56;100811.23;2275813;75;51426;-76
2023/06/18 06:52:19;;;;;;;;;;;;;;;24.74;45.85;100815.20;2240639;78;51662;-76
2023/06/18 06:55:21;;;;;;;;;;;;;;;24.67;46.41;100816.30;2240491;78;51359;-76
2023/06/18 06:58:22;;;;;;;;;;;;;;;24.62;46.66;100814.78;2235761;78;51435;-76
2023/06/18 07:01:24;;;;;;;;;;;;;;;24.64;46.66;100811.34;2235678;77;51117;-77
2023/06/18 07:04:26;;;;;;;;;;;;;;;24.60;46.82;100815.52;2253720;76;51385;-74
2023/06/18 07:07:28;;;;;;;;;;;;;;;24.63;46.83;100802.89;2231234;77;50680;-74
2023/06/18 07:10:30;;;;;;;;;;;;;;;24.60;46.90;100805.52;2238412;77;51455;-73
2023/06/18 07:13:31;;;;;;;;;;;;;;;24.63;46.87;100811.02;2212898;77;50865;-74
2023/06/18 07:16:34;;;;;;;;;;;;;;;24.64;46.78;100811.34;2297559;77;50240;-74
2023/06/18 07:19:36;;;;;;;;;;;;;;;24.62;46.88;100814.78;2297837;76;50678;-74
2023/06/18 07:22:38;;;;;;;;;;;;;;;24.62;46.79;100807.48;2297822;77;51526;-75
2023/06/18 07:25:39;;;;;;;;;;;;;;;24.63;46.81;100802.36;2252446;77;50116;-74
2023/06/18 07:28:41;;;;;;;;;;;;;;;24.66;46.82;100799.24;2275643;77;51606;-75
2023/06/18 07:31:42;;;;;;;;;;;;;;;24.65;46.82;100799.45;2291792;77;50634;-76
2023/06/18 07:34:44;;;;;;;;;;;;;;;24.67;46.83;100796.83;2255367;79;50740;-76
2023/06/18 07:37:47;;;;;;;;;;;;;;;24.69;46.84;100792.03;2231745;78;51208;-74
2023/06/18 07:40:50;;;;;;;;;;;;;;;24.68;46.87;100797.13;2231763;79;50741;-77
2023/06/18 07:43:51;;;;;;;;;;;;;;;24.70;46.85;100797.73;2254770;78;51910;-76
2023/06/18 07:46:53;;;;;;;;;;;;;;;24.73;46.87;100795.12;2231366;77;50870;-77
2023/06/18 07:49:55;;;;;;;;;;;;;;;24.74;46.85;100795.44;2254577;77;51550;-76
2023/06/18 07:52:56;;;;;;;;;;;;;;;24.74;46.90;100795.44;2231926;79;50754;-75
2023/06/18 07:55:58;;;;;;;;;;;;;;;24.76;47.02;100804.14;2231342;77;51523;-75
2023/06/18 07:58:59;;;;;;;;;;;;;;;24.78;46.99;100803.41;2254225;77;51432;-75
2023/06/18 08:02:01;;;;;;;;;;;;;;;24.76;47.05;100797.38;2228896;78;51099;-75
2023/06/18 08:05:03;;;;;;;;;;;;;;;24.74;47.08;100798.97;2199665;80;50237;-76
2023/06/18 08:08:04;;;;;;;;;;;;;;;24.72;47.21;100802.41;2199530;79;51511;-76
2023/06/18 08:11:06;;;;;;;;;;;;;;;24.75;47.25;100797.08;2222460;80;51545;-76
2023/06/18 08:14:07;;;;;;;;;;;;;;;24.75;47.21;100790.31;2200035;80;52350;-76
2023/06/18 08:17:09;;;;;;;;;;;;;;;24.75;47.18;100794.38;2200559;80;53664;-76
2023/06/18 08:20:11;;;;;;;;;;;;;;;24.75;47.18;100797.08;2200139;79;50771;-76
2023/06/18 08:23:15;;;;;;;;;;;;;;;24.76;47.17;100800.08;2222443;79;51559;-75
2023/06/18 08:26:16;;;;;;;;;;;;;;;24.77;47.19;100799.87;2222364;79;22313;-75
2023/06/18 08:29:17;;;;;;;;;;;;;;;24.77;47.16;100801.75;2222447;79;50687;-75
2023/06/18 08:32:19;;;;;;;;;;;;;;;24.76;47.13;100798.73;2240845;77;50180;-74
2023/06/18 08:35:21;;;;;;;;;;;;;;;24.75;47.22;100795.73;2256689;77;51450;-74
2023/06/18 08:38:22;;;;;;;;;;;;;;;24.75;47.22;100794.38;2233717;79;52309;-75
2023/06/18 08:41:24;;;;;;;;;;;;;;;24.73;47.26;100791.05;2233849;79;53345;-75
2023/06/18 08:44:27;;;;;;;;;;;;;;;24.68;47.29;100794.95;2257159;78;51541;-75
2023/06/18 08:47:29;;;;;;;;;;;;;;;24.64;47.38;100793.75;2257011;79;51533;-75
2023/06/18 08:50:30;;;;;;;;;;;;;;;24.61;47.36;100793.66;2233735;79;52575;-75
2023/06/18 08:53:40;;;;;;;;;;;;;;;24.60;47.45;100792.52;2257352;78;50656;-74
2023/06/18 08:56:48;;;;;;;;;;;;;;;24.60;47.41;100789.81;2246427;78;51485;-75
2023/06/18 08:59:49;;;;;;;;;;;;;;;24.62;47.45;100789.08;2257233;79;50677;-75
2023/06/18 09:02:51;;;;;;;;;;;;;;;24.59;47.49;100787.64;2253498;78;49753;-75
2023/06/18 09:05:52;;;;;;;;;;;;;;;24.59;47.50;100782.23;2257203;78;50235;-76
2023/06/18 09:08:56;;;;;;;;;;;;;;;24.56;47.59;100790.79;2257116;78;50742;-75
2023/06/18 09:11:57;;;;;;;;;;;;;;;24.58;47.56;100786.49;2257552;79;22790;-75
2023/06/18 09:14:59;;;;;;;;;;;;;;;24.55;47.63;100795.34;2234076;79;51019;-75
2023/06/18 09:18:01;;;;;;;;;;;;;;;24.54;47.64;100791.52;2257211;77;51522;-75
2023/06/18 09:21:06;;;;;;;;;;;;;;;24.53;47.64;100790.70;2257560;79;50713;-75
2023/06/18 09:24:10;;;;;;;;;;;;;;;24.51;47.72;100790.09;2233724;79;22403;-75
2023/06/18 09:27:12;;;;;;;;;;;;;;;24.49;47.74;100794.88;2234270;78;51759;-76
2023/06/18 09:30:23;;;;;;;;;;;;;;;24.49;47.72;100795.41;2260955;78;51532;-76
2023/06/18 09:33:29;;;;;;;;;;;;;;;24.48;47.66;100791.03;2308125;75;22164;-75
2023/06/18 09:36:30;;;;;;;;;;;;;;;24.46;47.69;100790.45;2315552;75;51580;-76
2023/06/18 09:39:32;;;;;;;;;;;;;;;24.47;47.74;100788.86;2315855;75;51319;-76
2023/06/18 09:42:34;;;;;;;;;;;;;;;24.47;47.70;100776.69;2295145;77;51265;-75
2023/06/18 09:45:35;;;;;;;;;;;;;;;24.45;47.64;100777.95;2318075;76;51559;-76
2023/06/18 09:48:38;;;;;;;;;;;;;;;24.43;47.65;100774.59;2315759;75;50605;-76
2023/06/18 09:51:44;;;;;;;;;;;;;;;24.44;47.65;100781.16;2268927;77;51562;-75
2023/06/18 09:54:43;;;;;;;;;;;;;;;24.41;47.73;100778.89;2292968;77;22335;-75
2023/06/18 09:57:51;;;;;;;;;;;;;;;24.38;47.77;100782.04;2316702;77;51496;-74
2023/06/18 10:01:03;;;;;;;;;;;;;;;24.37;47.82;100777.66;2318674;75;50701;-74
2023/06/18 10:04:05;;;;;;;;;;;;;;;24.38;47.78;100783.39;2233283;79;52431;-74
2023/06/18 10:07:13;;;;;;;;;;;;;;;24.39;47.82;100778.28;2257290;77;50339;-74
2023/06/18 10:10:14;;;;;;;;;;;;;;;24.37;47.77;100779.55;2256940;78;22421;-74
2023/06/18 10:13:16;;;;;;;;;;;;;;;24.37;47.79;100773.60;2257421;79;51606;-75
2023/06/18 10:16:18;;;;;;;;;;;;;;;24.36;47.79;100776.02;2233812;79;52300;-74
2023/06/18 10:19:24;;;;;;;;;;;;;;;24.34;47.84;100772.69;2257258;79;50801;-74
2023/06/18 10:22:27;;;;;;;;;;;;;;;24.32;47.82;100772.08;2257240;79;50803;-74
2023/06/18 10:25:29;;;;;;;;;;;;;;;24.29;47.93;100780.63;2257303;79;50462;-74
2023/06/18 10:28:31;;;;;;;;;;;;;;;24.29;47.95;100786.04;2209541;78;52483;-74
2023/06/18 10:31:33;;;;;;;;;;;;;;;24.32;47.82;100785.06;2257383;77;51494;-75
2023/06/18 10:34:34;;;;;;;;;;;;;;;24.34;47.78;100782.16;2256329;77;51447;-75
2023/06/18 10:37:36;;;;;;;;;;;;;;;24.35;47.76;100778.39;2234377;78;50644;-75
2023/06/18 10:40:38;;;;;;;;;;;;;;;24.37;47.72;100773.60;2257344;78;50625;-75
2023/06/18 10:43:40;;;;;;;;;;;;;;;24.41;47.57;100778.89;2234263;78;51454;-75
2023/06/18 10:46:42;;;;;;;;;;;;;;;24.40;47.58;100772.34;2257160;78;49981;-76
2023/06/18 10:49:45;;;;;;;;;;;;;;;24.37;47.68;100776.84;2257234;78;50785;-75
2023/06/18 10:52:49;;;;;;;;;;;;;;;24.37;47.62;100773.60;2254411;77;50651;-75
2023/06/18 10:55:57;;;;;;;;;;;;;;;24.39;47.55;100776.09;2234286;78;51358;-74
2023/06/18 10:58:58;;;;;;;;;;;;;;;24.38;47.55;100769.88;2257296;78;50191;-74
2023/06/18 11:02:00;;;;;;;;;;;;;;;24.34;47.61;100777.57;2277134;77;50420;-74
2023/06/18 11:05:02;;;;;;;;;;;;;;;24.36;47.60;100777.36;2248652;77;52320;-74
2023/06/18 11:08:05;;;;;;;;;;;;;;;24.34;47.61;100764.58;2293871;77;51427;-75
2023/06/18 11:11:10;;;;;;;;;;;;;;;24.36;47.54;100766.55;2314891;76;51559;-75
2023/06/18 11:14:20;;;;;;;;;;;;;;;24.37;47.54;100766.02;2315752;76;50317;-75
2023/06/18 11:17:22;;;;;;;;;;;;;;;24.36;47.57;100757.61;2293163;75;51294;-74
2023/06/18 11:20:23;;;;;;;;;;;;;;;24.36;47.57;100750.84;2315766;77;50412;-74
2023/06/18 11:23:25;;;;;;;;;;;;;;;24.37;47.53;100749.27;2278117;76;50609;-75
2023/06/18 11:26:27;;;;;;;;;;;;;;;24.38;47.52;100754.99;2231321;78;51261;-76
2023/06/18 11:29:30;;;;;;;;;;;;;;;24.38;47.47;100745.53;2254499;79;50321;-74
2023/06/18 11:32:32;;;;;;;;;;;;;;;24.39;47.49;100738.23;2254277;77;50331;-74
2023/06/18 11:35:33;;;;;;;;;;;;;;;24.38;47.48;100749.58;2254394;77;50654;-74
2023/06/18 11:38:35;;;;;;;;;;;;;;;24.34;47.57;100747.82;2231185;77;51430;-76
2023/06/18 11:41:37;;;;;;;;;;;;;;;24.32;47.60;100745.03;2231268;79;51240;-74
2023/06/18 11:44:46;;;;;;;;;;;;;;;24.32;47.64;100744.50;2231866;78;50650;-74
2023/06/18 11:47:49;;;;;;;;;;;;;;;24.30;47.69;100741.22;2254274;77;50313;-74
2023/06/18 11:50:54;;;;;;;;;;;;;;;24.31;47.64;100742.03;2228287;78;51618;-74
2023/06/18 11:53:56;;;;;;;;;;;;;;;24.32;47.60;100739.63;2256284;78;52653;-75
2023/06/18 11:56:57;;;;;;;;;;;;;;;24.33;47.62;100745.36;2234012;79;50666;-75
2023/06/18 11:59:59;;;;;;;;;;;;;;;24.33;47.55;100739.42;2257204;78;50684;-75
2023/06/18 12:03:01;;;;;;;;;;;;;;;24.34;47.52;100737.53;2257260;79;50351;-75
2023/06/18 12:06:04;;;;;;;;;;;;;;;24.36;47.49;100735.45;2209900;79;51661;-75
2023/06/18 12:09:07;;;;;;;;;;;;;;;24.33;47.57;100730.48;2255843;78;50678;-75
2023/06/18 12:12:13;;;;;;;;;;;;;;;24.38;47.45;100735.20;2257271;79;51617;-75
2023/06/18 12:15:33;;;;;;;;;;;;;;;24.37;47.44;100730.33;2257429;79;51643;-75
2023/06/18 12:18:35;;;;;;;;;;;;;;;24.36;47.49;100722.45;2233723;79;52387;-75
2023/06/18 12:21:37;;;;;;;;;;;;;;;24.39;47.40;100725.53;2257228;79;51512;-75
2023/06/18 12:24:38;;;;;;;;;;;;;;;24.39;47.37;100721.48;2256226;79;50268;-75
2023/06/18 12:27:41;;;;;;;;;;;;;;;24.34;47.52;100725.37;2257105;79;50257;-74
2023/06/18 12:30:42;;;;;;;;;;;;;;;24.37;47.47;100729.51;2234015;78;51702;-76
2023/06/18 12:33:45;;;;;;;;;;;;;;;24.35;47.49;100725.66;2234061;79;51556;-76
2023/06/18 12:36:47;;;;;;;;;;;;;;;24.33;47.53;100721.84;2234214;78;51694;-75
2023/06/18 12:40:14;;;;;;;;;;;;;;;24.33;47.54;100720.48;2257232;78;50422;-75
2023/06/18 12:43:16;;;;;;;;;;;;;;;24.31;47.57;100724.46;2181804;81;22606;-75
2023/06/18 12:46:24;;;;;;;;;;;;;;;24.31;47.57;100725.81;2181914;80;50644;-75
2023/06/18 12:49:26;;;;;;;;;;;;;;;24.27;47.67;100721.34;2182103;81;51510;-76
2023/06/18 12:52:28;;;;;;;;;;;;;;;24.30;47.64;100726.84;2182205;80;51511;-76
2023/06/18 12:55:29;;;;;;;;;;;;;;;24.30;47.62;100721.43;2156913;81;52254;-76
2023/06/18 12:58:34;;;;;;;;;;;;;;;24.26;47.75;100718.87;2179738;80;51513;-76
2023/06/18 13:01:35;;;;;;;;;;;;;;;24.26;47.78;100714.83;2181168;80;23457;-75
2023/06/18 13:04:39;;;;;;;;;;;;;;;24.25;47.78;100717.20;2184757;80;51420;-75
2023/06/18 13:07:40;;;;;;;;;;;;;;;24.27;47.70;100713.23;2161352;81;22807;-75
2023/06/18 13:10:42;;;;;;;;;;;;;;;24.26;47.75;100710.77;2161380;80;51447;-76
2023/06/18 13:13:43;;;;;;;;;;;;;;;24.27;47.72;100707.00;2211302;78;51561;-77
2023/06/18 13:16:45;;;;;;;;;;;;;;;24.29;47.62;100708.44;2259268;77;50388;-76
2023/06/18 13:19:47;;;;;;;;;;;;;;;24.32;47.59;100701.77;2259949;78;50696;-76
2023/06/18 13:22:49;;;;;;;;;;;;;;;24.30;47.62;100702.50;2258969;78;51493;-75
2023/06/18 13:25:52;;;;;;;;;;;;;;;24.26;47.72;100704.01;2236367;78;50398;-75
2023/06/18 13:28:54;;;;;;;;;;;;;;;24.25;47.72;100702.33;2258915;78;50255;-76
2023/06/18 13:31:56;;;;;;;;;;;;;;;24.28;47.65;100703.27;2235708;77;50458;-76
2023/06/18 13:34:57;;;;;;;;;;;;;;;24.31;47.60;100697.41;2254248;78;49543;-76
2023/06/18 13:37:59;;;;;;;;;;;;;;;24.30;47.59;100690.33;2233871;78;50259;-74
2023/06/18 13:41:02;;;;;;;;;;;;;;;24.33;47.55;100691.27;2257045;77;51459;-75
2023/06/18 13:44:03;;;;;;;;;;;;;;;24.35;47.51;100694.56;2257062;79;50792;-75
2023/06/18 13:47:05;;;;;;;;;;;;;;;24.36;47.47;100698.94;2209934;79;50914;-76
2023/06/18 13:50:07;;;;;;;;;;;;;;;24.36;47.50;100691.35;2234053;79;51461;-75
2023/06/18 13:53:09;;;;;;;;;;;;;;;24.39;47.43;100693.08;2257020;78;50347;-76
2023/06/18 13:56:11;;;;;;;;;;;;;;;24.35;47.52;100683.74;2256878;79;51632;-75
2023/06/18 13:59:13;;;;;;;;;;;;;;;24.38;47.45;100686.53;2233366;79;52644;-74
2023/06/18 14:02:15;;;;;;;;;;;;;;;24.36;47.47;100687.30;2251775;77;51447;-75
2023/06/18 14:05:16;;;;;;;;;;;;;;;24.38;47.44;100677.91;2276087;77;51581;-76
2023/06/18 14:08:18;;;;;;;;;;;;;;;24.37;47.47;100680.30;2254156;79;51464;-75
2023/06/18 14:11:19;;;;;;;;;;;;;;;24.35;47.51;100676.98;2231170;79;51414;-76
2023/06/18 14:14:21;;;;;;;;;;;;;;;24.35;47.53;100678.33;2254211;79;50238;-76
2023/06/18 14:17:23;;;;;;;;;;;;;;;24.36;47.49;100674.59;2254088;79;50035;-75
2023/06/18 14:20:25;;;;;;;;;;;;;;;24.35;47.53;100676.98;2231415;79;51544;-76
2023/06/18 14:23:31;;;;;;;;;;;;;;;24.31;47.64;100678.48;2207322;79;52617;-75
2023/06/18 14:26:31;;;;;;;;;;;;;;;24.28;47.70;100673.00;2231200;78;22375;-75
2023/06/18 14:29:32;;;;;;;;;;;;;;;24.28;47.71;100676.23;2254294;77;50633;-75
2023/06/18 14:32:34;;;;;;;;;;;;;;;24.28;47.73;100678.94;2232773;79;50138;-75
2023/06/18 14:35:36;;;;;;;;;;;;;;;24.32;47.63;100680.95;2209390;79;50955;-75
2023/06/18 14:38:37;;;;;;;;;;;;;;;24.29;47.69;100677.34;2209739;79;52373;-74
2023/06/18 14:41:39;;;;;;;;;;;;;;;24.31;47.60;100678.48;2257021;79;51423;-75
2023/06/18 14:44:41;;;;;;;;;;;;;;;24.32;47.59;100677.42;2257227;77;50260;-74
2023/06/18 14:47:43;;;;;;;;;;;;;;;24.31;47.56;100673.90;2233501;79;52455;-75
2023/06/18 14:50:44;;;;;;;;;;;;;;;24.30;47.59;100686.28;2233801;78;51385;-75
2023/06/18 14:53:51;;;;;;;;;;;;;;;24.32;47.53;100693.12;2234125;79;50651;-75
2023/06/18 14:56:51;;;;;;;;;;;;;;;24.34;47.52;100690.21;2233892;78;23045;-75
2023/06/18 14:59:57;;;;;;;;;;;;;;;24.35;47.48;100689.15;2234887;79;22510;-75
2023/06/18 15:02:56;;;;;;;;;;;;;;;24.36;47.46;100690.00;2263998;77;22496;-74
2023/06/18 15:05:58;;;;;;;;;;;;;;;24.33;47.49;100684.52;2254863;78;50194;-75
2023/06/18 15:09:00;;;;;;;;;;;;;;;24.34;47.49;100694.27;2254154;77;51197;-74
2023/06/18 15:12:01;;;;;;;;;;;;;;;24.36;47.45;100701.64;2231302;79;51715;-74
2023/06/18 15:15:03;;;;;;;;;;;;;;;24.36;47.42;100691.35;2231813;79;50634;-74
2023/06/18 15:18:05;;;;;;;;;;;;;;;24.38;47.37;100688.73;2231498;79;50410;-74
2023/06/18 15:21:06;;;;;;;;;;;;;;;24.36;47.41;100684.59;2231499;79;51153;-74
2023/06/18 15:24:08;;;;;;;;;;;;;;;24.35;47.39;100686.45;2231236;79;50999;-75
2023/06/18 15:27:10;;;;;;;;;;;;;;;24.39;47.33;100686.32;2231079;79;50040;-75
2023/06/18 15:30:12;;;;;;;;;;;;;;;24.37;47.32;100683.00;2254287;78;51527;-75
2023/06/18 15:33:14;;;;;;;;;;;;;;;24.40;47.26;100679.85;2269624;77;50428;-75
2023/06/18 15:36:15;;;;;;;;;;;;;;;24.44;47.21;100678.91;2256888;78;51571;-75